SWR52 LSZH-KBOS
Flight info
| Callsign | SWR52 |
|---|---|
| Flight time | N/A |
| Altitude | 34000 |
| Route | DEGES Z1 ETAGO DCT LIRSU/N0468F360 L608 DENUT L610 KOPUL Q63 ICTAM M197 ENHAQ DCT GAJIT DCT BAPHU DCT LESLU/M081F360 DCT EPUNA DCT RODEL/M081F370 DCT 51N020W 51N030W 5030N04000W 48N050W DCT NICSO/N0458F380 N258B TUSKY DCT EURRO OOSHN5 |
| Aircraft | A333/H-SDE3GHIJ2J3J5M1RVWXY/LB2D1 |
Departure
| Time | 2026-05-06 19:08 |
|---|---|
| Airport | Zürich Airport (LSZH) |
Arrival
| Time | N/A |
|---|---|
| Airport | Boston Logan International Airport (KBOS) |
| Time | Latitude | Longitude | Altitude | Speed | Heading |
|---|---|---|---|---|---|
| 2026-05-06 18:49 | 47.46035 | 8.55735 | 1406 ft | 0 kts | 7° |
| 2026-05-06 18:59 | 47.46022 | 8.55733 | 1406 ft | 2 kts | 7° |
| 2026-05-06 19:00 | 47.46007 | 8.55731 | 1406 ft | 2 kts | 13° |
| 2026-05-06 19:00 | 47.45993 | 8.55723 | 1406 ft | 2 kts | 30° |
| 2026-05-06 19:00 | 47.45981 | 8.55711 | 1406 ft | 2 kts | 42° |
| 2026-05-06 19:00 | 47.45970 | 8.55695 | 1406 ft | 2 kts | 55° |
| 2026-05-06 19:01 | 47.45963 | 8.55676 | 1406 ft | 2 kts | 69° |
| 2026-05-06 19:01 | 47.45958 | 8.55655 | 1405 ft | 2 kts | 82° |
| 2026-05-06 19:01 | 47.45957 | 8.55634 | 1405 ft | 1 kts | 94° |
| 2026-05-06 19:01 | 47.45957 | 8.55626 | 1405 ft | 0 kts | 96° |
| 2026-05-06 19:03 | 47.45957 | 8.55636 | 1405 ft | 3 kts | 96° |
| 2026-05-06 19:04 | 47.45952 | 8.55697 | 1406 ft | 7 kts | 95° |
| 2026-05-06 19:04 | 47.45948 | 8.55769 | 1407 ft | 5 kts | 95° |
| 2026-05-06 19:04 | 47.45942 | 8.55857 | 1409 ft | 13 kts | 96° |
| 2026-05-06 19:04 | 47.45929 | 8.56031 | 1410 ft | 17 kts | 97° |
| 2026-05-06 19:05 | 47.45918 | 8.56196 | 1413 ft | 14 kts | 97° |
| 2026-05-06 19:05 | 47.45905 | 8.56337 | 1415 ft | 12 kts | 98° |
| 2026-05-06 19:05 | 47.45873 | 8.56445 | 1417 ft | 9 kts | 130° |
| 2026-05-06 19:05 | 47.45831 | 8.56512 | 1419 ft | 7 kts | 129° |
| 2026-05-06 19:06 | 47.45803 | 8.56587 | 1421 ft | 10 kts | 107° |
| 2026-05-06 19:06 | 47.45789 | 8.56738 | 1423 ft | 15 kts | 97° |
| 2026-05-06 19:06 | 47.45778 | 8.56886 | 1426 ft | 13 kts | 96° |
| 2026-05-06 19:06 | 47.45756 | 8.57000 | 1427 ft | 11 kts | 130° |
| 2026-05-06 19:07 | 47.45687 | 8.57027 | 1428 ft | 9 kts | 191° |
| 2026-05-06 19:07 | 47.45663 | 8.56959 | 1428 ft | 4 kts | 277° |
| 2026-05-06 19:07 | 47.45669 | 8.56876 | 1427 ft | 16 kts | 277° |
| 2026-05-06 19:07 | 47.45709 | 8.56363 | 1417 ft | 87 kts | 276° |
| 2026-05-06 19:08 | 47.45794 | 8.55119 | 1400 ft | 153 kts | 276° |
| 2026-05-06 19:08 | 47.45919 | 8.53318 | 1655 ft | 185 kts | 277° |
| 2026-05-06 19:08 | 47.46005 | 8.51548 | 2669 ft | 168 kts | 269° |
| 2026-05-06 19:08 | 47.45856 | 8.49806 | 3314 ft | 179 kts | 254° |
| 2026-05-06 19:09 | 47.45270 | 8.48107 | 3758 ft | 187 kts | 241° |
| 2026-05-06 19:09 | 47.44542 | 8.46480 | 4040 ft | 193 kts | 240° |
| 2026-05-06 19:09 | 47.43802 | 8.44777 | 4272 ft | 200 kts | 240° |
| 2026-05-06 19:09 | 47.42971 | 8.43021 | 4358 ft | 218 kts | 238° |
| 2026-05-06 19:10 | 47.42066 | 8.41115 | 4483 ft | 236 kts | 238° |
| 2026-05-06 19:10 | 47.41719 | 8.40383 | 4509 ft | 245 kts | 237° |
| 2026-05-06 19:10 | 47.40694 | 8.38225 | 4822 ft | 261 kts | 237° |
| 2026-05-06 19:10 | 47.39651 | 8.36031 | 5484 ft | 262 kts | 237° |
| 2026-05-06 19:11 | 47.38617 | 8.33826 | 6150 ft | 262 kts | 241° |
| 2026-05-06 19:11 | 47.37803 | 8.31433 | 6752 ft | 264 kts | 245° |
| 2026-05-06 19:11 | 47.36965 | 8.29015 | 7412 ft | 264 kts | 244° |
| 2026-05-06 19:11 | 47.36120 | 8.26602 | 8026 ft | 266 kts | 244° |
| 2026-05-06 19:12 | 47.35267 | 8.24183 | 8629 ft | 268 kts | 244° |
| 2026-05-06 19:12 | 47.34399 | 8.21743 | 9259 ft | 269 kts | 244° |
| 2026-05-06 19:12 | 47.33532 | 8.19303 | 9868 ft | 270 kts | 244° |
| 2026-05-06 19:12 | 47.32649 | 8.16823 | 10234 ft | 281 kts | 244° |
| 2026-05-06 19:13 | 47.31696 | 8.14149 | 10216 ft | 306 kts | 243° |
| 2026-05-06 19:13 | 47.30668 | 8.11257 | 10266 ft | 328 kts | 243° |
| 2026-05-06 19:13 | 47.29574 | 8.08184 | 10579 ft | 341 kts | 243° |
| 2026-05-06 19:13 | 47.28470 | 8.05086 | 11245 ft | 343 kts | 243° |
| 2026-05-06 19:14 | 47.27417 | 8.01906 | 11808 ft | 347 kts | 251° |
| 2026-05-06 19:14 | 47.27074 | 7.98393 | 12404 ft | 351 kts | 271° |
| 2026-05-06 19:14 | 47.27419 | 7.94800 | 12918 ft | 356 kts | 277° |
| 2026-05-06 19:14 | 47.27771 | 7.91174 | 13434 ft | 360 kts | 277° |
| 2026-05-06 19:15 | 47.28127 | 7.87492 | 14000 ft | 363 kts | 277° |
| 2026-05-06 19:15 | 47.28483 | 7.83792 | 14508 ft | 367 kts | 277° |
| 2026-05-06 19:15 | 47.28842 | 7.80029 | 14968 ft | 372 kts | 276° |
| 2026-05-06 19:15 | 47.29202 | 7.76238 | 15470 ft | 376 kts | 277° |
| 2026-05-06 19:16 | 47.29564 | 7.72415 | 15985 ft | 379 kts | 276° |
| 2026-05-06 19:16 | 47.29928 | 7.68542 | 16438 ft | 383 kts | 276° |
| 2026-05-06 19:16 | 47.30295 | 7.64627 | 16888 ft | 386 kts | 276° |
| 2026-05-06 19:16 | 47.30916 | 7.60748 | 17305 ft | 393 kts | 287° |
| 2026-05-06 19:17 | 47.31774 | 7.56876 | 17747 ft | 397 kts | 286° |
| 2026-05-06 19:17 | 47.32625 | 7.52981 | 18193 ft | 400 kts | 287° |
| 2026-05-06 19:17 | 47.33480 | 7.49055 | 18666 ft | 403 kts | 287° |
| 2026-05-06 19:17 | 47.34340 | 7.45087 | 19083 ft | 406 kts | 287° |
| 2026-05-06 19:18 | 47.35205 | 7.41097 | 19531 ft | 409 kts | 287° |
| 2026-05-06 19:18 | 47.36073 | 7.37080 | 19956 ft | 412 kts | 287° |
| 2026-05-06 19:18 | 47.36945 | 7.33036 | 20324 ft | 415 kts | 286° |
| 2026-05-06 19:18 | 47.37829 | 7.28926 | 20764 ft | 418 kts | 286° |
| 2026-05-06 19:19 | 47.38710 | 7.24829 | 21178 ft | 420 kts | 286° |
| 2026-05-06 19:19 | 47.39599 | 7.20680 | 21524 ft | 424 kts | 286° |
| 2026-05-06 19:19 | 47.40491 | 7.16506 | 21914 ft | 426 kts | 286° |
| 2026-05-06 19:19 | 47.41205 | 7.12242 | 22284 ft | 427 kts | 281° |
| 2026-05-06 19:20 | 47.41836 | 7.07928 | 22684 ft | 429 kts | 281° |
| 2026-05-06 19:20 | 47.42473 | 7.03587 | 23086 ft | 431 kts | 281° |
| 2026-05-06 19:20 | 47.43111 | 6.99237 | 23450 ft | 433 kts | 281° |
| 2026-05-06 19:20 | 47.43753 | 6.94848 | 23719 ft | 437 kts | 281° |
| 2026-05-06 19:21 | 47.44394 | 6.90458 | 24044 ft | 440 kts | 281° |
| 2026-05-06 19:21 | 47.45040 | 6.86009 | 24386 ft | 442 kts | 281° |
| 2026-05-06 19:21 | 47.45689 | 6.81539 | 24608 ft | 446 kts | 281° |
| 2026-05-06 19:21 | 47.46338 | 6.77033 | 24892 ft | 449 kts | 281° |
| 2026-05-06 19:22 | 47.46977 | 6.72494 | 25281 ft | 449 kts | 282° |
| 2026-05-06 19:22 | 47.47643 | 6.67959 | 25607 ft | 451 kts | 281° |
| 2026-05-06 19:22 | 47.48150 | 6.63385 | 25833 ft | 454 kts | 276° |
| 2026-05-06 19:22 | 47.48474 | 6.58705 | 26162 ft | 455 kts | 276° |
| 2026-05-06 19:23 | 47.48806 | 6.54043 | 26471 ft | 457 kts | 276° |
| 2026-05-06 19:23 | 47.49145 | 6.49326 | 26725 ft | 460 kts | 276° |
| 2026-05-06 19:23 | 47.49479 | 6.44628 | 27054 ft | 461 kts | 276° |
| 2026-05-06 19:23 | 47.49815 | 6.39881 | 27333 ft | 463 kts | 276° |
| 2026-05-06 19:24 | 47.50153 | 6.35097 | 27574 ft | 466 kts | 276° |
| 2026-05-06 19:24 | 47.50487 | 6.30328 | 27839 ft | 468 kts | 275° |
| 2026-05-06 19:24 | 47.50823 | 6.25504 | 28215 ft | 467 kts | 275° |
| 2026-05-06 19:24 | 47.51160 | 6.20653 | 28464 ft | 470 kts | 275° |
| 2026-05-06 19:25 | 47.51491 | 6.15824 | 28673 ft | 473 kts | 276° |
| 2026-05-06 19:25 | 47.51828 | 6.10910 | 28924 ft | 474 kts | 275° |
| 2026-05-06 19:25 | 47.52160 | 6.06015 | 29206 ft | 475 kts | 275° |
| 2026-05-06 19:25 | 47.52491 | 6.01113 | 29445 ft | 476 kts | 275° |
| 2026-05-06 19:26 | 47.52821 | 5.96195 | 29770 ft | 476 kts | 275° |
| 2026-05-06 19:26 | 47.53148 | 5.91292 | 30105 ft | 475 kts | 275° |
| 2026-05-06 19:26 | 47.53839 | 5.86486 | 30333 ft | 477 kts | 290° |
| 2026-05-06 19:26 | 47.55389 | 5.82124 | 30470 ft | 479 kts | 307° |
| 2026-05-06 19:27 | 47.57629 | 5.78431 | 30701 ft | 479 kts | 315° |
| 2026-05-06 19:27 | 47.59929 | 5.74809 | 30965 ft | 479 kts | 314° |
| 2026-05-06 19:27 | 47.62205 | 5.71169 | 31244 ft | 477 kts | 314° |
| 2026-05-06 19:27 | 47.64468 | 5.67525 | 31482 ft | 476 kts | 314° |
| 2026-05-06 19:28 | 47.66708 | 5.63910 | 31709 ft | 474 kts | 314° |
| 2026-05-06 19:28 | 47.68941 | 5.60296 | 31949 ft | 472 kts | 314° |
| 2026-05-06 19:28 | 47.71175 | 5.56678 | 32104 ft | 473 kts | 314° |
| 2026-05-06 19:28 | 47.73409 | 5.53053 | 32300 ft | 472 kts | 314° |
| 2026-05-06 19:29 | 47.75621 | 5.49459 | 32498 ft | 471 kts | 314° |
| 2026-05-06 19:29 | 47.77843 | 5.45845 | 32668 ft | 470 kts | 313° |
| 2026-05-06 19:29 | 47.80060 | 5.42232 | 32826 ft | 470 kts | 313° |
| 2026-05-06 19:29 | 47.82269 | 5.38628 | 32998 ft | 469 kts | 313° |
| 2026-05-06 19:30 | 47.84475 | 5.35025 | 33127 ft | 469 kts | 313° |
| 2026-05-06 19:30 | 47.86663 | 5.31445 | 33256 ft | 469 kts | 312° |
| 2026-05-06 19:30 | 47.88847 | 5.27867 | 33422 ft | 468 kts | 312° |
| 2026-05-06 19:30 | 47.91051 | 5.24251 | 33573 ft | 468 kts | 312° |
| 2026-05-06 19:31 | 47.93250 | 5.20640 | 33691 ft | 467 kts | 312° |
| 2026-05-06 19:31 | 47.95439 | 5.17039 | 33871 ft | 466 kts | 312° |
| 2026-05-06 19:31 | 47.99843 | 5.09779 | 33912 ft | 472 kts | 312° |
| 2026-05-06 19:32 | 48.04281 | 5.02441 | 33939 ft | 474 kts | 312° |
| 2026-05-06 19:32 | 48.08704 | 4.95111 | 33907 ft | 471 kts | 312° |
| 2026-05-06 19:33 | 48.13103 | 4.87801 | 33935 ft | 472 kts | 312° |
| 2026-05-06 19:33 | 48.17515 | 4.80449 | 33903 ft | 473 kts | 312° |
| 2026-05-06 19:34 | 48.21915 | 4.73092 | 33925 ft | 472 kts | 312° |
| 2026-05-06 19:34 | 48.26251 | 4.65696 | 33898 ft | 469 kts | 307° |
| 2026-05-06 19:35 | 48.27824 | 4.61443 | 33882 ft | 467 kts | 291° |
| 2026-05-06 19:35 | 48.28567 | 4.56704 | 33895 ft | 467 kts | 276° |
| 2026-05-06 19:35 | 48.29240 | 4.46939 | 33920 ft | 471 kts | 278° |
| 2026-05-06 19:36 | 48.30110 | 4.37176 | 33933 ft | 470 kts | 278° |
| 2026-05-06 19:36 | 48.30991 | 4.27464 | 33923 ft | 470 kts | 278° |
| 2026-05-06 19:37 | 48.31866 | 4.17739 | 33931 ft | 469 kts | 278° |
| 2026-05-06 19:37 | 48.32735 | 4.07993 | 33935 ft | 469 kts | 278° |
| 2026-05-06 19:38 | 48.33597 | 3.98239 | 33933 ft | 470 kts | 278° |
| 2026-05-06 19:38 | 48.34451 | 3.88463 | 33931 ft | 470 kts | 278° |
| 2026-05-06 19:39 | 48.35296 | 3.78706 | 33931 ft | 468 kts | 278° |
| 2026-05-06 19:39 | 48.36130 | 3.68975 | 33948 ft | 468 kts | 278° |
| 2026-05-06 19:40 | 48.36952 | 3.59263 | 33931 ft | 467 kts | 278° |
| 2026-05-06 19:40 | 48.37768 | 3.49546 | 33942 ft | 467 kts | 278° |
| 2026-05-06 19:41 | 48.38565 | 3.39946 | 33953 ft | 467 kts | 278° |
| 2026-05-06 19:41 | 48.39360 | 3.30279 | 33941 ft | 465 kts | 278° |
| 2026-05-06 19:42 | 48.40147 | 3.20617 | 33943 ft | 465 kts | 278° |
| 2026-05-06 19:42 | 48.40926 | 3.10940 | 33939 ft | 464 kts | 278° |
| 2026-05-06 19:43 | 48.41698 | 3.01241 | 33929 ft | 465 kts | 278° |
| 2026-05-06 19:43 | 48.43117 | 2.91747 | 33975 ft | 465 kts | 289° |
| 2026-05-06 19:44 | 48.44962 | 2.82365 | 33944 ft | 465 kts | 288° |
| 2026-05-06 19:44 | 48.46755 | 2.73004 | 33936 ft | 464 kts | 288° |
| 2026-05-06 19:45 | 48.48541 | 2.63614 | 33946 ft | 464 kts | 288° |
| 2026-05-06 19:45 | 48.50317 | 2.54234 | 33938 ft | 463 kts | 288° |
| 2026-05-06 19:46 | 48.52081 | 2.44862 | 33954 ft | 464 kts | 288° |
| 2026-05-06 19:46 | 48.53846 | 2.35448 | 33957 ft | 464 kts | 288° |
| 2026-05-06 19:47 | 48.55586 | 2.26109 | 33956 ft | 464 kts | 287° |
| 2026-05-06 19:47 | 48.57270 | 2.16702 | 33938 ft | 464 kts | 283° |
| 2026-05-06 19:48 | 48.58574 | 2.07150 | 33948 ft | 464 kts | 283° |
| 2026-05-06 19:48 | 48.59907 | 1.97604 | 33959 ft | 463 kts | 283° |
| 2026-05-06 19:49 | 48.61233 | 1.88074 | 33970 ft | 463 kts | 283° |
| 2026-05-06 19:49 | 48.62556 | 1.78509 | 33959 ft | 463 kts | 284° |
| 2026-05-06 19:50 | 48.63868 | 1.68954 | 33966 ft | 463 kts | 284° |
| 2026-05-06 19:50 | 48.65171 | 1.59386 | 33965 ft | 463 kts | 283° |
| 2026-05-06 19:51 | 48.66464 | 1.49795 | 33965 ft | 462 kts | 284° |
| 2026-05-06 19:51 | 48.67746 | 1.40231 | 33967 ft | 462 kts | 284° |
| 2026-05-06 19:52 | 48.69016 | 1.30696 | 33965 ft | 462 kts | 283° |
| 2026-05-06 19:52 | 48.70276 | 1.21168 | 33966 ft | 461 kts | 283° |
| 2026-05-06 19:53 | 48.71534 | 1.11598 | 33967 ft | 461 kts | 283° |
| 2026-05-06 19:53 | 48.72785 | 1.02015 | 33966 ft | 461 kts | 283° |
| 2026-05-06 19:54 | 48.74026 | 0.92433 | 33967 ft | 461 kts | 283° |
| 2026-05-06 19:54 | 48.75262 | 0.82863 | 33966 ft | 461 kts | 283° |
| 2026-05-06 19:55 | 48.76490 | 0.73309 | 33973 ft | 460 kts | 283° |
| 2026-05-06 19:55 | 48.77710 | 0.63754 | 33973 ft | 459 kts | 283° |
| 2026-05-06 19:56 | 48.78921 | 0.54202 | 33972 ft | 459 kts | 283° |
| 2026-05-06 19:56 | 48.80545 | 0.44815 | 33977 ft | 459 kts | 288° |
| 2026-05-06 19:57 | 48.82249 | 0.35480 | 33974 ft | 458 kts | 288° |
| 2026-05-06 19:57 | 48.83939 | 0.26099 | 33976 ft | 459 kts | 287° |
| 2026-05-06 19:58 | 48.85619 | 0.16716 | 33981 ft | 458 kts | 287° |
| 2026-05-06 19:58 | 48.87286 | 0.07356 | 33983 ft | 458 kts | 287° |
| 2026-05-06 19:59 | 48.88950 | -0.02040 | 33988 ft | 458 kts | 287° |
| 2026-05-06 19:59 | 48.90607 | -0.11440 | 33997 ft | 458 kts | 287° |
| 2026-05-06 20:00 | 48.92257 | -0.20853 | 33989 ft | 457 kts | 287° |
| 2026-05-06 20:00 | 48.93867 | -0.30218 | 33989 ft | 456 kts | 286° |
| 2026-05-06 20:01 | 48.95452 | -0.39594 | 33994 ft | 457 kts | 286° |
| 2026-05-06 20:01 | 48.97029 | -0.48980 | 33997 ft | 458 kts | 286° |
| 2026-05-06 20:02 | 48.98608 | -0.58423 | 33992 ft | 458 kts | 286° |
| 2026-05-06 20:02 | 49.00168 | -0.67803 | 33991 ft | 459 kts | 285° |
| 2026-05-06 20:03 | 49.01730 | -0.77254 | 33988 ft | 458 kts | 285° |
| 2026-05-06 20:03 | 49.03281 | -0.86685 | 33987 ft | 456 kts | 285° |
| 2026-05-06 20:04 | 49.04823 | -0.96109 | 33993 ft | 457 kts | 285° |
| 2026-05-06 20:04 | 49.06354 | -1.05526 | 33994 ft | 458 kts | 285° |
| 2026-05-06 20:05 | 49.07881 | -1.14976 | 34000 ft | 457 kts | 285° |
| 2026-05-06 20:05 | 49.09410 | -1.24400 | 33995 ft | 457 kts | 285° |
| 2026-05-06 20:06 | 49.10938 | -1.33842 | 33992 ft | 457 kts | 285° |
| 2026-05-06 20:06 | 49.12460 | -1.43303 | 33994 ft | 457 kts | 285° |
| 2026-05-06 20:07 | 49.13970 | -1.52733 | 33995 ft | 457 kts | 285° |
| 2026-05-06 20:07 | 49.15467 | -1.62139 | 33991 ft | 457 kts | 285° |
| 2026-05-06 20:08 | 49.16963 | -1.71601 | 33986 ft | 457 kts | 285° |
| 2026-05-06 20:08 | 49.18445 | -1.81018 | 33984 ft | 457 kts | 285° |
| 2026-05-06 20:09 | 49.19923 | -1.90473 | 33986 ft | 456 kts | 285° |
| 2026-05-06 20:09 | 49.21390 | -1.99906 | 33990 ft | 454 kts | 285° |
| 2026-05-06 20:10 | 49.22921 | -2.09277 | 33996 ft | 455 kts | 286° |
| 2026-05-06 20:10 | 49.24534 | -2.18650 | 33993 ft | 456 kts | 286° |
| 2026-05-06 20:11 | 49.26136 | -2.28020 | 33988 ft | 456 kts | 286° |
| 2026-05-06 20:11 | 49.27729 | -2.37390 | 33987 ft | 455 kts | 286° |
| 2026-05-06 20:12 | 49.29313 | -2.46757 | 33991 ft | 455 kts | 286° |
| 2026-05-06 20:12 | 49.30891 | -2.56137 | 33998 ft | 455 kts | 286° |
| 2026-05-06 20:13 | 49.32458 | -2.65505 | 33996 ft | 454 kts | 285° |
| 2026-05-06 20:13 | 49.34015 | -2.74864 | 33995 ft | 454 kts | 285° |
| 2026-05-06 20:14 | 49.35564 | -2.84226 | 33996 ft | 454 kts | 285° |
| 2026-05-06 20:14 | 49.37107 | -2.93605 | 33996 ft | 454 kts | 285° |
| 2026-05-06 20:15 | 49.38642 | -3.02988 | 33992 ft | 454 kts | 285° |
| 2026-05-06 20:15 | 49.40168 | -3.12365 | 33999 ft | 453 kts | 285° |
| 2026-05-06 20:16 | 49.41686 | -3.21744 | 33996 ft | 453 kts | 285° |
| 2026-05-06 20:16 | 49.43193 | -3.31113 | 33996 ft | 453 kts | 285° |
| 2026-05-06 20:17 | 49.44694 | -3.40494 | 33996 ft | 453 kts | 285° |
| 2026-05-06 20:17 | 49.46190 | -3.49895 | 34001 ft | 453 kts | 285° |
| 2026-05-06 20:18 | 49.47675 | -3.59287 | 34001 ft | 453 kts | 285° |
| 2026-05-06 20:18 | 49.49155 | -3.68697 | 34001 ft | 453 kts | 284° |
| 2026-05-06 20:19 | 49.50626 | -3.78106 | 34003 ft | 452 kts | 284° |
| 2026-05-06 20:19 | 49.52088 | -3.87507 | 34005 ft | 452 kts | 284° |
| 2026-05-06 20:20 | 49.53540 | -3.96905 | 34006 ft | 452 kts | 284° |
| 2026-05-06 20:20 | 49.54985 | -4.06308 | 34002 ft | 452 kts | 284° |
| 2026-05-06 20:21 | 49.56423 | -4.15722 | 34005 ft | 453 kts | 284° |
| 2026-05-06 20:21 | 49.57856 | -4.25156 | 34006 ft | 452 kts | 284° |
| 2026-05-06 20:22 | 49.59522 | -4.34478 | 34018 ft | 452 kts | 297° |
| 2026-05-06 20:22 | 49.62949 | -4.42614 | 33980 ft | 455 kts | 303° |
| 2026-05-06 20:23 | 49.66340 | -4.50801 | 34008 ft | 453 kts | 303° |
| 2026-05-06 20:23 | 49.69693 | -4.59001 | 34003 ft | 451 kts | 303° |
| 2026-05-06 20:24 | 49.73037 | -4.67216 | 34006 ft | 452 kts | 302° |
| 2026-05-06 20:24 | 49.76373 | -4.75436 | 34007 ft | 452 kts | 302° |
| 2026-05-06 20:25 | 49.79710 | -4.83687 | 34007 ft | 453 kts | 302° |
| 2026-05-06 20:25 | 49.83052 | -4.91975 | 34000 ft | 454 kts | 302° |
| 2026-05-06 20:26 | 49.86391 | -5.00283 | 34000 ft | 454 kts | 302° |
| 2026-05-06 20:26 | 49.89718 | -5.08584 | 34000 ft | 453 kts | 302° |
| 2026-05-06 20:27 | 49.93043 | -5.16909 | 33999 ft | 452 kts | 302° |
| 2026-05-06 20:27 | 49.96353 | -5.25221 | 33998 ft | 452 kts | 302° |
| 2026-05-06 20:28 | 49.99658 | -5.33549 | 33998 ft | 453 kts | 302° |
| 2026-05-06 20:28 | 50.02964 | -5.41904 | 33998 ft | 453 kts | 302° |
| 2026-05-06 20:29 | 50.06267 | -5.50282 | 33999 ft | 454 kts | 302° |
| 2026-05-06 20:29 | 50.09560 | -5.58654 | 33998 ft | 454 kts | 302° |
| 2026-05-06 20:30 | 50.14517 | -5.71315 | 34001 ft | 454 kts | 301° |
| 2026-05-06 20:31 | 50.17798 | -5.79728 | 34003 ft | 454 kts | 301° |
| 2026-05-06 20:31 | 50.21070 | -5.88146 | 34003 ft | 454 kts | 302° |
| 2026-05-06 20:32 | 50.24341 | -5.96588 | 34001 ft | 455 kts | 301° |
| 2026-05-06 20:32 | 50.27599 | -6.05024 | 33994 ft | 455 kts | 302° |
| 2026-05-06 20:33 | 50.30863 | -6.13504 | 33997 ft | 455 kts | 302° |
| 2026-05-06 20:33 | 50.34139 | -6.22042 | 33995 ft | 455 kts | 302° |
| 2026-05-06 20:34 | 50.37401 | -6.30570 | 33996 ft | 456 kts | 302° |
| 2026-05-06 20:34 | 50.40651 | -6.39097 | 33994 ft | 455 kts | 302° |
| 2026-05-06 20:35 | 50.43899 | -6.47643 | 33995 ft | 456 kts | 302° |
| 2026-05-06 20:35 | 50.47130 | -6.56177 | 33990 ft | 456 kts | 302° |
| 2026-05-06 20:36 | 50.50364 | -6.64744 | 33996 ft | 456 kts | 302° |
| 2026-05-06 20:36 | 50.53597 | -6.73342 | 33997 ft | 458 kts | 302° |
| 2026-05-06 20:37 | 50.56826 | -6.81953 | 33989 ft | 458 kts | 302° |
| 2026-05-06 20:37 | 50.60053 | -6.90592 | 33983 ft | 459 kts | 302° |
| 2026-05-06 20:38 | 50.63285 | -6.99268 | 33984 ft | 460 kts | 302° |
| 2026-05-06 20:38 | 50.66505 | -7.07945 | 33983 ft | 459 kts | 302° |
| 2026-05-06 20:39 | 50.69731 | -7.16663 | 33984 ft | 461 kts | 302° |
| 2026-05-06 20:39 | 50.72955 | -7.25408 | 33985 ft | 461 kts | 302° |
| 2026-05-06 20:40 | 50.76173 | -7.34169 | 33987 ft | 462 kts | 302° |
| 2026-05-06 20:40 | 50.79395 | -7.42966 | 33987 ft | 465 kts | 303° |
| 2026-05-06 20:41 | 50.82621 | -7.51808 | 33985 ft | 465 kts | 303° |
| 2026-05-06 20:41 | 50.85842 | -7.60667 | 33982 ft | 465 kts | 303° |
| 2026-05-06 20:42 | 50.89056 | -7.69534 | 33981 ft | 465 kts | 302° |
| 2026-05-06 20:42 | 50.92272 | -7.78440 | 33983 ft | 467 kts | 302° |
| 2026-05-06 20:43 | 50.95492 | -7.87390 | 33984 ft | 469 kts | 302° |
| 2026-05-06 20:43 | 50.98721 | -7.96394 | 33982 ft | 471 kts | 302° |
| 2026-05-06 20:44 | 51.01199 | -8.06012 | 33986 ft | 474 kts | 289° |
| 2026-05-06 20:44 | 51.03081 | -8.16035 | 33978 ft | 475 kts | 290° |
| 2026-05-06 20:45 | 51.04982 | -8.26055 | 33983 ft | 474 kts | 290° |
| 2026-05-06 20:45 | 51.06883 | -8.36114 | 33990 ft | 476 kts | 290° |
| 2026-05-06 20:46 | 51.08779 | -8.46198 | 33987 ft | 477 kts | 290° |
| 2026-05-06 20:46 | 51.10668 | -8.56298 | 33997 ft | 477 kts | 290° |
| 2026-05-06 20:47 | 51.12554 | -8.66441 | 34002 ft | 478 kts | 289° |
| 2026-05-06 20:47 | 51.14431 | -8.76588 | 34000 ft | 478 kts | 289° |
| 2026-05-06 20:48 | 51.16301 | -8.86754 | 33997 ft | 479 kts | 289° |
| 2026-05-06 20:48 | 51.18165 | -8.96945 | 33997 ft | 480 kts | 289° |
| 2026-05-06 20:49 | 51.20025 | -9.07165 | 34004 ft | 480 kts | 289° |
| 2026-05-06 20:49 | 51.21875 | -9.17393 | 34004 ft | 480 kts | 289° |
| 2026-05-06 20:50 | 51.23713 | -9.27608 | 33998 ft | 479 kts | 289° |
| 2026-05-06 20:50 | 51.25545 | -9.37852 | 33994 ft | 481 kts | 289° |
| 2026-05-06 20:51 | 51.27370 | -9.48113 | 33998 ft | 481 kts | 289° |
| 2026-05-06 20:51 | 51.29192 | -9.58415 | 34001 ft | 482 kts | 289° |
| 2026-05-06 20:52 | 51.31003 | -9.68714 | 33997 ft | 482 kts | 288° |
| 2026-05-06 20:52 | 51.32801 | -9.79002 | 33993 ft | 481 kts | 288° |
| 2026-05-06 20:53 | 51.34592 | -9.89306 | 33998 ft | 482 kts | 288° |
| 2026-05-06 20:53 | 51.36379 | -9.99641 | 33996 ft | 483 kts | 288° |
| 2026-05-06 20:54 | 51.38158 | -10.10006 | 33998 ft | 483 kts | 288° |
| 2026-05-06 20:54 | 51.39928 | -10.20374 | 33996 ft | 482 kts | 288° |
| 2026-05-06 20:55 | 51.41686 | -10.30725 | 33995 ft | 482 kts | 288° |
| 2026-05-06 20:55 | 51.43433 | -10.41077 | 33997 ft | 482 kts | 288° |
| 2026-05-06 20:56 | 51.45170 | -10.51437 | 33998 ft | 482 kts | 288° |
| 2026-05-06 20:56 | 51.46902 | -10.61825 | 33998 ft | 483 kts | 288° |
| 2026-05-06 20:57 | 51.48624 | -10.72218 | 33994 ft | 483 kts | 287° |
| 2026-05-06 20:57 | 51.50340 | -10.82637 | 33991 ft | 483 kts | 287° |
| 2026-05-06 20:58 | 51.52045 | -10.93052 | 33993 ft | 483 kts | 287° |
| 2026-05-06 20:58 | 51.53738 | -11.03459 | 33992 ft | 482 kts | 287° |
| 2026-05-06 20:59 | 51.55420 | -11.13867 | 33997 ft | 482 kts | 287° |
| 2026-05-06 20:59 | 51.57235 | -11.24196 | 34007 ft | 479 kts | 296° |
| 2026-05-06 21:00 | 51.59952 | -11.33964 | 33975 ft | 480 kts | 297° |
| 2026-05-06 21:00 | 51.62585 | -11.43810 | 33995 ft | 478 kts | 296° |
| 2026-05-06 21:01 | 51.65192 | -11.53645 | 33992 ft | 478 kts | 296° |
| 2026-05-06 21:01 | 51.67784 | -11.63465 | 33991 ft | 477 kts | 296° |
| 2026-05-06 21:02 | 51.70367 | -11.73300 | 33991 ft | 478 kts | 295° |
| 2026-05-06 21:02 | 51.72945 | -11.83154 | 33990 ft | 477 kts | 295° |
| 2026-05-06 21:03 | 51.75514 | -11.93015 | 33988 ft | 477 kts | 295° |
| 2026-05-06 21:03 | 51.78071 | -12.02876 | 33989 ft | 477 kts | 295° |
| 2026-05-06 21:04 | 51.80619 | -12.12741 | 33984 ft | 476 kts | 295° |
| 2026-05-06 21:04 | 51.83157 | -12.22618 | 33987 ft | 476 kts | 295° |
| 2026-05-06 21:05 | 51.85681 | -12.32480 | 33988 ft | 475 kts | 295° |
| 2026-05-06 21:05 | 51.88195 | -12.42341 | 33987 ft | 474 kts | 295° |
| 2026-05-06 21:06 | 51.90694 | -12.52196 | 33988 ft | 474 kts | 295° |
| 2026-05-06 21:06 | 51.93192 | -12.62080 | 33983 ft | 473 kts | 295° |
| 2026-05-06 21:07 | 51.95672 | -12.71946 | 33982 ft | 473 kts | 294° |
| 2026-05-06 21:07 | 51.98146 | -12.81826 | 33980 ft | 473 kts | 294° |
| 2026-05-06 21:08 | 52.00608 | -12.91706 | 33983 ft | 473 kts | 294° |
| 2026-05-06 21:08 | 52.03068 | -13.01618 | 33983 ft | 474 kts | 294° |
| 2026-05-06 21:09 | 52.05518 | -13.11539 | 33979 ft | 474 kts | 294° |
| 2026-05-06 21:09 | 52.07963 | -13.21477 | 33978 ft | 473 kts | 294° |
| 2026-05-06 21:10 | 52.10392 | -13.31400 | 33975 ft | 473 kts | 294° |
| 2026-05-06 21:10 | 52.12812 | -13.41331 | 33974 ft | 473 kts | 294° |
| 2026-05-06 21:11 | 52.15229 | -13.51292 | 33977 ft | 473 kts | 293° |
| 2026-05-06 21:11 | 52.17634 | -13.61252 | 33979 ft | 472 kts | 293° |
| 2026-05-06 21:12 | 52.20025 | -13.71195 | 33977 ft | 472 kts | 292° |
| 2026-05-06 21:12 | 52.22406 | -13.81151 | 33973 ft | 471 kts | 292° |
| 2026-05-06 21:13 | 52.24783 | -13.91123 | 33963 ft | 472 kts | 292° |
| 2026-05-06 21:13 | 52.27147 | -14.01099 | 33949 ft | 473 kts | 292° |
| 2026-05-06 21:14 | 52.29509 | -14.11101 | 33951 ft | 473 kts | 292° |
| 2026-05-06 21:14 | 52.31861 | -14.21117 | 33950 ft | 472 kts | 291° |
| 2026-05-06 21:15 | 52.34207 | -14.31147 | 33949 ft | 473 kts | 291° |
| 2026-05-06 21:15 | 52.36543 | -14.41190 | 33945 ft | 472 kts | 291° |
| 2026-05-06 21:16 | 52.38866 | -14.51219 | 33940 ft | 470 kts | 291° |
| 2026-05-06 21:16 | 52.41170 | -14.61212 | 33944 ft | 469 kts | 291° |
| 2026-05-06 21:17 | 52.43463 | -14.71207 | 33949 ft | 468 kts | 290° |
| 2026-05-06 21:17 | 52.45744 | -14.81193 | 33950 ft | 468 kts | 290° |
| 2026-05-06 21:18 | 52.48017 | -14.91195 | 33947 ft | 468 kts | 290° |
| 2026-05-06 21:18 | 52.50014 | -15.01325 | 33889 ft | 466 kts | 277° |
| 2026-05-06 21:19 | 52.50264 | -15.11891 | 33959 ft | 465 kts | 271° |
| 2026-05-06 21:19 | 52.50460 | -15.22452 | 33951 ft | 462 kts | 271° |
| 2026-05-06 21:20 | 52.50657 | -15.32990 | 33951 ft | 462 kts | 271° |
| 2026-05-06 21:20 | 52.50845 | -15.43544 | 33954 ft | 463 kts | 271° |
| 2026-05-06 21:21 | 52.51024 | -15.54085 | 33947 ft | 461 kts | 271° |
| 2026-05-06 21:21 | 52.51193 | -15.64597 | 33946 ft | 461 kts | 271° |
| 2026-05-06 21:22 | 52.51352 | -15.75128 | 33946 ft | 461 kts | 270° |
| 2026-05-06 21:22 | 52.51503 | -15.85659 | 33940 ft | 460 kts | 270° |
| 2026-05-06 21:23 | 52.51644 | -15.96150 | 33937 ft | 460 kts | 270° |
| 2026-05-06 21:23 | 52.51775 | -16.06630 | 33944 ft | 459 kts | 270° |
| 2026-05-06 21:24 | 52.51897 | -16.17108 | 33948 ft | 459 kts | 270° |
| 2026-05-06 21:24 | 52.52010 | -16.27579 | 33944 ft | 458 kts | 270° |
| 2026-05-06 21:25 | 52.52113 | -16.38025 | 33943 ft | 458 kts | 270° |
| 2026-05-06 21:25 | 52.52207 | -16.48504 | 33948 ft | 458 kts | 270° |
| 2026-05-06 21:26 | 52.52292 | -16.58962 | 33951 ft | 458 kts | 270° |
| 2026-05-06 21:26 | 52.52368 | -16.69420 | 33953 ft | 458 kts | 269° |
| 2026-05-06 21:27 | 52.52434 | -16.79870 | 33954 ft | 458 kts | 269° |
| 2026-05-06 21:27 | 52.52491 | -16.90329 | 33955 ft | 458 kts | 268° |
| 2026-05-06 21:28 | 52.52540 | -17.00784 | 33955 ft | 458 kts | 268° |
| 2026-05-06 21:28 | 52.52578 | -17.11243 | 33954 ft | 457 kts | 268° |
| 2026-05-06 21:29 | 52.52607 | -17.21684 | 33953 ft | 456 kts | 268° |
| 2026-05-06 21:29 | 52.52628 | -17.32113 | 33955 ft | 456 kts | 268° |
| 2026-05-06 21:30 | 52.52639 | -17.42513 | 33955 ft | 456 kts | 268° |
| 2026-05-06 21:30 | 52.52641 | -17.52950 | 33954 ft | 456 kts | 268° |
| 2026-05-06 21:31 | 52.52635 | -17.63348 | 33951 ft | 455 kts | 268° |
| 2026-05-06 21:31 | 52.52617 | -17.73744 | 33957 ft | 456 kts | 267° |
| 2026-05-06 21:32 | 52.52592 | -17.84131 | 33954 ft | 454 kts | 267° |
| 2026-05-06 21:32 | 52.52537 | -17.99674 | 33948 ft | 454 kts | 267° |
| 2026-05-06 21:33 | 52.52489 | -18.10050 | 33943 ft | 454 kts | 267° |
| 2026-05-06 21:33 | 52.52432 | -18.20405 | 33951 ft | 454 kts | 267° |
| 2026-05-06 21:34 | 52.52366 | -18.30773 | 33947 ft | 454 kts | 267° |
| 2026-05-06 21:34 | 52.52291 | -18.41137 | 33946 ft | 453 kts | 267° |
| 2026-05-06 21:35 | 52.52207 | -18.51486 | 33943 ft | 454 kts | 267° |
| 2026-05-06 21:35 | 52.52115 | -18.61840 | 33943 ft | 453 kts | 267° |
| 2026-05-06 21:36 | 52.52012 | -18.72148 | 33944 ft | 452 kts | 266° |
| 2026-05-06 21:36 | 52.51902 | -18.82450 | 33944 ft | 452 kts | 266° |
| 2026-05-06 21:37 | 52.51782 | -18.92738 | 33943 ft | 452 kts | 266° |
| 2026-05-06 21:37 | 52.51653 | -19.03084 | 33942 ft | 452 kts | 266° |
| 2026-05-06 21:38 | 52.51515 | -19.13389 | 33947 ft | 451 kts | 266° |
| 2026-05-06 21:38 | 52.51370 | -19.23673 | 33944 ft | 450 kts | 266° |
| 2026-05-06 21:39 | 52.51216 | -19.33950 | 33948 ft | 450 kts | 266° |
| 2026-05-06 21:39 | 52.51051 | -19.44190 | 33948 ft | 448 kts | 266° |
| 2026-05-06 21:40 | 52.50880 | -19.54402 | 33948 ft | 447 kts | 266° |
| 2026-05-06 21:40 | 52.50700 | -19.64587 | 33951 ft | 447 kts | 266° |
| 2026-05-06 21:41 | 52.50511 | -19.74789 | 33950 ft | 448 kts | 266° |
| 2026-05-06 21:41 | 52.50312 | -19.84993 | 33950 ft | 447 kts | 266° |
| 2026-05-06 21:42 | 52.50107 | -19.95157 | 33953 ft | 445 kts | 266° |
| 2026-05-06 21:42 | 52.49791 | -20.05290 | 33944 ft | 444 kts | 262° |
| 2026-05-06 21:43 | 52.49144 | -20.15353 | 33957 ft | 444 kts | 263° |
| 2026-05-06 21:43 | 52.48555 | -20.25421 | 33958 ft | 442 kts | 263° |
| 2026-05-06 21:44 | 52.47965 | -20.35468 | 33960 ft | 442 kts | 263° |
| 2026-05-06 21:44 | 52.47367 | -20.45519 | 33957 ft | 442 kts | 263° |
| 2026-05-06 21:45 | 52.46762 | -20.55559 | 33963 ft | 443 kts | 263° |
| 2026-05-06 21:45 | 52.46145 | -20.65595 | 33964 ft | 442 kts | 263° |
| 2026-05-06 21:46 | 52.45524 | -20.75605 | 33961 ft | 441 kts | 263° |
| 2026-05-06 21:46 | 52.44895 | -20.85591 | 33968 ft | 441 kts | 263° |
| 2026-05-06 21:47 | 52.44258 | -20.95571 | 33968 ft | 440 kts | 263° |
| 2026-05-06 21:47 | 52.43615 | -21.05536 | 33966 ft | 440 kts | 263° |
| 2026-05-06 21:48 | 52.42960 | -21.15511 | 33964 ft | 441 kts | 263° |
| 2026-05-06 21:48 | 52.42297 | -21.25509 | 33963 ft | 441 kts | 263° |
| 2026-05-06 21:49 | 52.41624 | -21.35505 | 33964 ft | 440 kts | 263° |
| 2026-05-06 21:49 | 52.40947 | -21.45456 | 33963 ft | 440 kts | 263° |
| 2026-05-06 21:50 | 52.40259 | -21.55429 | 33963 ft | 440 kts | 263° |
| 2026-05-06 21:50 | 52.39565 | -21.65360 | 33962 ft | 439 kts | 262° |
| 2026-05-06 21:51 | 52.38862 | -21.75305 | 33963 ft | 440 kts | 262° |
| 2026-05-06 21:51 | 52.38149 | -21.85257 | 33969 ft | 440 kts | 262° |
| 2026-05-06 21:52 | 52.37429 | -21.95196 | 33966 ft | 440 kts | 262° |
| 2026-05-06 21:52 | 52.36700 | -22.05147 | 33962 ft | 440 kts | 262° |
| 2026-05-06 21:53 | 52.35963 | -22.15095 | 33960 ft | 440 kts | 262° |
| 2026-05-06 21:53 | 52.35217 | -22.25029 | 33964 ft | 439 kts | 262° |
| 2026-05-06 21:54 | 52.34463 | -22.34961 | 33963 ft | 440 kts | 262° |
| 2026-05-06 21:54 | 52.33702 | -22.44887 | 33958 ft | 440 kts | 262° |
| 2026-05-06 21:55 | 52.32930 | -22.54829 | 33958 ft | 440 kts | 262° |
| 2026-05-06 21:55 | 52.32150 | -22.64761 | 33963 ft | 440 kts | 262° |
| 2026-05-06 21:56 | 52.31361 | -22.74706 | 33965 ft | 442 kts | 261° |
| 2026-05-06 21:56 | 52.30564 | -22.84651 | 33963 ft | 441 kts | 261° |
| 2026-05-06 21:57 | 52.29758 | -22.94588 | 33965 ft | 441 kts | 261° |
| 2026-05-06 21:57 | 52.28943 | -23.04524 | 33957 ft | 441 kts | 261° |
| 2026-05-06 21:58 | 52.28121 | -23.14445 | 33968 ft | 440 kts | 262° |
| 2026-05-06 21:58 | 52.27291 | -23.24367 | 33969 ft | 441 kts | 261° |
| 2026-05-06 21:59 | 52.26451 | -23.34301 | 33951 ft | 442 kts | 261° |
| 2026-05-06 21:59 | 52.25601 | -23.44254 | 33955 ft | 444 kts | 262° |
| 2026-05-06 22:00 | 52.24740 | -23.54218 | 33976 ft | 443 kts | 262° |
| 2026-05-06 22:00 | 52.23872 | -23.64171 | 33963 ft | 442 kts | 262° |
| 2026-05-06 22:01 | 52.22995 | -23.74137 | 33944 ft | 444 kts | 261° |
| 2026-05-06 22:01 | 52.22110 | -23.84093 | 33943 ft | 444 kts | 261° |
| 2026-05-06 22:02 | 52.21217 | -23.94036 | 33937 ft | 443 kts | 261° |
| 2026-05-06 22:02 | 52.20314 | -24.03993 | 33945 ft | 444 kts | 261° |
| 2026-05-06 22:03 | 52.19403 | -24.13942 | 33945 ft | 445 kts | 261° |
| 2026-05-06 22:03 | 52.18479 | -24.23922 | 33950 ft | 445 kts | 261° |
| 2026-05-06 22:04 | 52.17550 | -24.33884 | 33938 ft | 445 kts | 261° |
| 2026-05-06 22:04 | 52.16612 | -24.43842 | 33936 ft | 446 kts | 261° |
| 2026-05-06 22:05 | 52.15664 | -24.53804 | 33937 ft | 445 kts | 261° |
| 2026-05-06 22:05 | 52.14707 | -24.63772 | 33935 ft | 446 kts | 261° |
| 2026-05-06 22:06 | 52.13741 | -24.73758 | 33935 ft | 446 kts | 260° |
| 2026-05-06 22:06 | 52.12766 | -24.83732 | 33935 ft | 446 kts | 260° |
| 2026-05-06 22:07 | 52.11780 | -24.93732 | 33928 ft | 447 kts | 260° |
| 2026-05-06 22:07 | 52.10787 | -25.03705 | 33921 ft | 447 kts | 260° |
| 2026-05-06 22:08 | 52.09783 | -25.13699 | 33923 ft | 448 kts | 260° |
| 2026-05-06 22:08 | 52.08768 | -25.23706 | 33932 ft | 448 kts | 260° |
| 2026-05-06 22:09 | 52.07747 | -25.33709 | 33931 ft | 448 kts | 260° |
| 2026-05-06 22:09 | 52.06712 | -25.43746 | 33925 ft | 451 kts | 260° |
| 2026-05-06 22:10 | 52.05665 | -25.53818 | 33934 ft | 452 kts | 260° |
| 2026-05-06 22:10 | 52.04608 | -25.63886 | 33923 ft | 452 kts | 260° |
| 2026-05-06 22:11 | 52.03544 | -25.73941 | 33929 ft | 452 kts | 259° |
| 2026-05-06 22:11 | 52.02471 | -25.83994 | 33923 ft | 452 kts | 259° |
| 2026-05-06 22:12 | 52.01387 | -25.94067 | 33917 ft | 453 kts | 259° |
| 2026-05-06 22:12 | 52.00290 | -26.04177 | 33921 ft | 454 kts | 259° |
| 2026-05-06 22:13 | 51.99187 | -26.14261 | 33922 ft | 453 kts | 259° |
| 2026-05-06 22:13 | 51.98074 | -26.24346 | 33912 ft | 454 kts | 259° |
| 2026-05-06 22:14 | 51.96951 | -26.34444 | 33909 ft | 456 kts | 259° |
| 2026-05-06 22:14 | 51.95815 | -26.44570 | 33917 ft | 456 kts | 259° |
| 2026-05-06 22:15 | 51.94669 | -26.54707 | 33900 ft | 457 kts | 260° |
| 2026-05-06 22:15 | 51.93516 | -26.64819 | 33900 ft | 457 kts | 260° |
| 2026-05-06 22:16 | 51.92351 | -26.74964 | 33884 ft | 458 kts | 259° |
| 2026-05-06 22:16 | 51.91179 | -26.85082 | 33893 ft | 457 kts | 259° |
| 2026-05-06 22:17 | 51.90000 | -26.95177 | 33894 ft | 456 kts | 259° |
| 2026-05-06 22:17 | 51.88808 | -27.05313 | 33893 ft | 458 kts | 259° |
| 2026-05-06 22:18 | 51.87606 | -27.15451 | 33895 ft | 459 kts | 259° |
| 2026-05-06 22:18 | 51.86392 | -27.25597 | 33888 ft | 459 kts | 259° |
| 2026-05-06 22:19 | 51.85170 | -27.35751 | 33890 ft | 459 kts | 259° |
| 2026-05-06 22:19 | 51.83940 | -27.45888 | 33889 ft | 458 kts | 259° |
| 2026-05-06 22:20 | 51.82703 | -27.56008 | 33892 ft | 458 kts | 259° |
| 2026-05-06 22:20 | 51.81457 | -27.66114 | 33893 ft | 459 kts | 259° |
| 2026-05-06 22:21 | 51.80201 | -27.76230 | 33876 ft | 458 kts | 259° |
| 2026-05-06 22:21 | 51.78935 | -27.86353 | 33874 ft | 461 kts | 259° |
| 2026-05-06 22:22 | 51.77654 | -27.96524 | 33881 ft | 463 kts | 259° |
| 2026-05-06 22:22 | 51.76361 | -28.06716 | 33885 ft | 464 kts | 259° |
| 2026-05-06 22:23 | 51.75057 | -28.16909 | 33885 ft | 463 kts | 259° |
| 2026-05-06 22:23 | 51.73746 | -28.27087 | 33889 ft | 464 kts | 260° |
| 2026-05-06 22:24 | 51.72423 | -28.37289 | 33888 ft | 464 kts | 260° |
| 2026-05-06 22:24 | 51.71090 | -28.47484 | 33892 ft | 464 kts | 260° |
| 2026-05-06 22:25 | 51.69748 | -28.57681 | 33892 ft | 464 kts | 260° |
| 2026-05-06 22:25 | 51.68398 | -28.67864 | 33895 ft | 464 kts | 259° |
| 2026-05-06 22:26 | 51.67040 | -28.78036 | 33901 ft | 464 kts | 259° |
| 2026-05-06 22:26 | 51.65672 | -28.88206 | 33898 ft | 465 kts | 259° |
| 2026-05-06 22:27 | 51.64295 | -28.98379 | 33897 ft | 465 kts | 259° |
| 2026-05-06 22:27 | 51.62906 | -29.08570 | 33906 ft | 466 kts | 259° |
| 2026-05-06 22:28 | 51.61508 | -29.18751 | 33920 ft | 466 kts | 259° |
| 2026-05-06 22:28 | 51.60099 | -29.28944 | 33911 ft | 467 kts | 259° |
| 2026-05-06 22:29 | 51.58680 | -29.39131 | 33915 ft | 467 kts | 259° |
| 2026-05-06 22:29 | 51.57253 | -29.49314 | 33927 ft | 467 kts | 259° |
| 2026-05-06 22:30 | 51.55815 | -29.59506 | 33918 ft | 466 kts | 259° |
| 2026-05-06 22:30 | 51.54370 | -29.69680 | 33925 ft | 467 kts | 259° |
| 2026-05-06 22:31 | 51.52915 | -29.79851 | 33911 ft | 467 kts | 259° |
| 2026-05-06 22:31 | 51.51451 | -29.90018 | 33932 ft | 468 kts | 259° |
| 2026-05-06 22:32 | 51.49976 | -30.00211 | 33923 ft | 468 kts | 259° |
| 2026-05-06 22:32 | 51.49550 | -30.05382 | 33953 ft | 465 kts | 270° |
| 2026-05-06 22:32 | 51.49368 | -30.10564 | 33944 ft | 467 kts | 268° |
| 2026-05-06 22:33 | 51.48815 | -30.20936 | 33931 ft | 466 kts | 267° |
| 2026-05-06 22:33 | 51.48219 | -30.31287 | 33935 ft | 466 kts | 267° |
| 2026-05-06 22:34 | 51.47608 | -30.41667 | 33936 ft | 466 kts | 267° |
| 2026-05-06 22:34 | 51.46988 | -30.52040 | 33942 ft | 467 kts | 267° |
| 2026-05-06 22:35 | 51.46357 | -30.62423 | 33952 ft | 467 kts | 267° |
| 2026-05-06 22:35 | 51.45719 | -30.72789 | 33954 ft | 467 kts | 267° |
| 2026-05-06 22:36 | 51.45070 | -30.83182 | 33941 ft | 468 kts | 267° |
| 2026-05-06 22:36 | 51.44412 | -30.93547 | 33947 ft | 468 kts | 267° |
| 2026-05-06 22:37 | 51.43745 | -31.03932 | 33957 ft | 468 kts | 267° |
| 2026-05-06 22:37 | 51.43069 | -31.14309 | 33963 ft | 467 kts | 267° |
| 2026-05-06 22:38 | 51.42384 | -31.24671 | 33945 ft | 468 kts | 267° |
| 2026-05-06 22:38 | 51.41689 | -31.35030 | 33958 ft | 468 kts | 267° |
| 2026-05-06 22:39 | 51.40984 | -31.45427 | 33967 ft | 468 kts | 267° |
| 2026-05-06 22:39 | 51.40268 | -31.55819 | 33973 ft | 469 kts | 267° |
| 2026-05-06 22:40 | 51.39545 | -31.66194 | 33986 ft | 468 kts | 267° |
| 2026-05-06 22:40 | 51.38812 | -31.76582 | 33984 ft | 470 kts | 266° |
| 2026-05-06 22:41 | 51.37694 | -31.92153 | 33992 ft | 469 kts | 267° |
| 2026-05-06 22:42 | 51.36938 | -32.02526 | 33997 ft | 468 kts | 267° |
| 2026-05-06 22:42 | 51.36174 | -32.12883 | 34009 ft | 469 kts | 267° |
| 2026-05-06 22:43 | 51.35399 | -32.23261 | 34003 ft | 469 kts | 267° |
| 2026-05-06 22:43 | 51.34613 | -32.33645 | 34006 ft | 470 kts | 267° |
| 2026-05-06 22:44 | 51.33819 | -32.44025 | 34014 ft | 470 kts | 267° |
| 2026-05-06 22:44 | 51.33015 | -32.54403 | 34007 ft | 469 kts | 268° |
| 2026-05-06 22:45 | 51.32201 | -32.64799 | 34010 ft | 471 kts | 268° |
| 2026-05-06 22:45 | 51.31377 | -32.75192 | 34020 ft | 472 kts | 267° |
| 2026-05-06 22:46 | 51.30544 | -32.85595 | 34031 ft | 471 kts | 267° |
| 2026-05-06 22:46 | 51.29700 | -32.96004 | 34033 ft | 471 kts | 267° |
| 2026-05-06 22:47 | 51.28846 | -33.06410 | 34042 ft | 472 kts | 267° |
| 2026-05-06 22:47 | 51.27983 | -33.16813 | 34037 ft | 472 kts | 268° |
| 2026-05-06 22:48 | 51.27113 | -33.27200 | 34025 ft | 471 kts | 268° |
| 2026-05-06 22:48 | 51.26233 | -33.37587 | 34036 ft | 472 kts | 268° |
| 2026-05-06 22:49 | 51.25343 | -33.47961 | 34044 ft | 471 kts | 268° |
| 2026-05-06 22:49 | 51.24444 | -33.58356 | 34055 ft | 472 kts | 268° |
| 2026-05-06 22:50 | 51.23535 | -33.68743 | 34046 ft | 472 kts | 267° |
| 2026-05-06 22:50 | 51.22616 | -33.79123 | 34056 ft | 473 kts | 267° |
| 2026-05-06 22:51 | 51.21687 | -33.89530 | 34062 ft | 472 kts | 267° |
| 2026-05-06 22:51 | 51.20750 | -33.99906 | 34060 ft | 472 kts | 268° |
| 2026-05-06 22:52 | 51.19805 | -34.10270 | 34068 ft | 471 kts | 268° |
| 2026-05-06 22:52 | 51.18853 | -34.20610 | 34064 ft | 471 kts | 268° |
| 2026-05-06 22:53 | 51.17892 | -34.30939 | 34072 ft | 471 kts | 268° |
| 2026-05-06 22:53 | 51.16922 | -34.41263 | 34086 ft | 471 kts | 268° |
| 2026-05-06 22:54 | 51.15943 | -34.51585 | 34085 ft | 470 kts | 268° |
| 2026-05-06 22:54 | 51.14954 | -34.61909 | 34082 ft | 471 kts | 268° |
| 2026-05-06 22:55 | 51.13956 | -34.72225 | 34090 ft | 471 kts | 267° |
| 2026-05-06 22:55 | 51.12949 | -34.82535 | 34099 ft | 470 kts | 267° |
| 2026-05-06 22:56 | 51.11934 | -34.92840 | 34087 ft | 471 kts | 267° |
| 2026-05-06 22:56 | 51.10910 | -35.03133 | 34087 ft | 471 kts | 268° |
| 2026-05-06 22:57 | 51.09876 | -35.13425 | 34092 ft | 471 kts | 268° |
| 2026-05-06 22:57 | 51.08836 | -35.23691 | 34099 ft | 468 kts | 268° |
| 2026-05-06 22:58 | 51.07791 | -35.33919 | 34093 ft | 469 kts | 268° |
| 2026-05-06 22:58 | 51.06734 | -35.44162 | 34119 ft | 470 kts | 268° |
| 2026-05-06 22:58 | 51.06202 | -35.49294 | 34248 ft | 470 kts | 268° |
| 2026-05-06 22:59 | 51.05667 | -35.54408 | 34508 ft | 468 kts | 268° |
| 2026-05-06 22:59 | 51.05133 | -35.59511 | 34723 ft | 466 kts | 268° |
| 2026-05-06 22:59 | 51.04598 | -35.64596 | 34939 ft | 464 kts | 268° |
| 2026-05-06 22:59 | 51.04063 | -35.69661 | 35090 ft | 465 kts | 267° |
| 2026-05-06 23:00 | 51.03522 | -35.74753 | 35216 ft | 466 kts | 267° |
| 2026-05-06 23:00 | 51.02981 | -35.79831 | 35382 ft | 465 kts | 267° |
| 2026-05-06 23:00 | 51.02437 | -35.84908 | 35533 ft | 465 kts | 267° |
| 2026-05-06 23:00 | 51.01892 | -35.89979 | 35702 ft | 464 kts | 268° |
| 2026-05-06 23:01 | 51.01346 | -35.95041 | 35839 ft | 464 kts | 268° |
| 2026-05-06 23:01 | 51.00796 | -36.00113 | 35996 ft | 463 kts | 267° |
| 2026-05-06 23:01 | 51.00242 | -36.05201 | 36081 ft | 464 kts | 267° |
| 2026-05-06 23:02 | 50.99133 | -36.15313 | 36118 ft | 463 kts | 268° |
| 2026-05-06 23:02 | 50.98019 | -36.25401 | 36125 ft | 463 kts | 268° |
| 2026-05-06 23:03 | 50.96898 | -36.35464 | 36130 ft | 461 kts | 268° |
| 2026-05-06 23:03 | 50.95771 | -36.45489 | 36128 ft | 461 kts | 268° |
| 2026-05-06 23:04 | 50.94635 | -36.55517 | 36124 ft | 460 kts | 268° |
| 2026-05-06 23:04 | 50.93497 | -36.65495 | 36128 ft | 460 kts | 267° |
| 2026-05-06 23:05 | 50.92347 | -36.75488 | 36137 ft | 461 kts | 267° |
| 2026-05-06 23:05 | 50.91183 | -36.85526 | 36143 ft | 461 kts | 267° |
| 2026-05-06 23:06 | 50.90012 | -36.95533 | 36133 ft | 461 kts | 268° |
| 2026-05-06 23:06 | 50.88840 | -37.05495 | 36117 ft | 458 kts | 268° |
| 2026-05-06 23:07 | 50.87664 | -37.15396 | 36141 ft | 457 kts | 268° |
| 2026-05-06 23:07 | 50.86476 | -37.25330 | 35886 ft | 458 kts | 268° |
| 2026-05-06 23:07 | 50.85881 | -37.30267 | 36090 ft | 453 kts | 268° |
| 2026-05-06 23:08 | 50.85290 | -37.35176 | 36183 ft | 456 kts | 268° |
| 2026-05-06 23:08 | 50.84082 | -37.45134 | 36167 ft | 461 kts | 268° |
| 2026-05-06 23:09 | 50.82861 | -37.55099 | 36130 ft | 457 kts | 268° |
| 2026-05-06 23:09 | 50.81645 | -37.64966 | 36159 ft | 454 kts | 268° |
| 2026-05-06 23:10 | 50.80424 | -37.74813 | 36147 ft | 457 kts | 268° |
| 2026-05-06 23:10 | 50.79189 | -37.84671 | 36178 ft | 456 kts | 268° |
| 2026-05-06 23:11 | 50.77949 | -37.94514 | 36173 ft | 454 kts | 268° |
| 2026-05-06 23:11 | 50.76704 | -38.04334 | 36154 ft | 455 kts | 269° |
| 2026-05-06 23:12 | 50.75453 | -38.14112 | 36161 ft | 453 kts | 269° |
| 2026-05-06 23:12 | 50.74197 | -38.23879 | 36170 ft | 450 kts | 268° |
| 2026-05-06 23:13 | 50.72938 | -38.33598 | 36171 ft | 453 kts | 268° |
| 2026-05-06 23:13 | 50.71665 | -38.43350 | 36156 ft | 451 kts | 269° |
| 2026-05-06 23:14 | 50.70396 | -38.53011 | 36174 ft | 448 kts | 269° |
| 2026-05-06 23:14 | 50.69121 | -38.62653 | 36202 ft | 449 kts | 269° |
| 2026-05-06 23:15 | 50.67826 | -38.72378 | 36198 ft | 452 kts | 268° |
| 2026-05-06 23:15 | 50.66526 | -38.82058 | 36202 ft | 449 kts | 268° |
| 2026-05-06 23:16 | 50.65227 | -38.91677 | 36171 ft | 448 kts | 268° |
| 2026-05-06 23:16 | 50.63926 | -39.01264 | 36186 ft | 446 kts | 268° |
| 2026-05-06 23:17 | 50.62614 | -39.10852 | 36183 ft | 447 kts | 268° |
| 2026-05-06 23:17 | 50.61294 | -39.20427 | 36197 ft | 445 kts | 268° |
| 2026-05-06 23:18 | 50.59974 | -39.29956 | 36195 ft | 444 kts | 268° |
| 2026-05-06 23:18 | 50.58646 | -39.39483 | 36194 ft | 445 kts | 268° |
| 2026-05-06 23:19 | 50.57303 | -39.49052 | 36197 ft | 447 kts | 268° |
| 2026-05-06 23:19 | 50.55954 | -39.58585 | 36194 ft | 442 kts | 268° |
| 2026-05-06 23:20 | 50.54608 | -39.68075 | 36195 ft | 444 kts | 267° |
| 2026-05-06 23:20 | 50.53247 | -39.77573 | 36203 ft | 442 kts | 267° |
| 2026-05-06 23:21 | 50.51881 | -39.87059 | 36198 ft | 444 kts | 268° |
| 2026-05-06 23:21 | 50.50513 | -39.96504 | 36196 ft | 441 kts | 267° |
| 2026-05-06 23:22 | 50.49562 | -40.05909 | 36236 ft | 429 kts | 277° |
| 2026-05-06 23:22 | 50.49133 | -40.15330 | 36190 ft | 430 kts | 275° |
| 2026-05-06 23:23 | 50.48608 | -40.24709 | 36196 ft | 430 kts | 275° |
| 2026-05-06 23:23 | 50.48064 | -40.34094 | 36197 ft | 431 kts | 275° |
| 2026-05-06 23:24 | 50.47512 | -40.43465 | 36188 ft | 429 kts | 274° |
| 2026-05-06 23:24 | 50.46955 | -40.52807 | 36199 ft | 430 kts | 275° |
| 2026-05-06 23:25 | 50.46387 | -40.62165 | 36191 ft | 429 kts | 275° |
| 2026-05-06 23:25 | 50.45817 | -40.71521 | 36201 ft | 430 kts | 273° |
| 2026-05-06 23:26 | 50.45234 | -40.80876 | 36200 ft | 431 kts | 273° |
| 2026-05-06 23:26 | 50.44643 | -40.90247 | 36199 ft | 428 kts | 273° |
| 2026-05-06 23:27 | 50.44050 | -40.99548 | 36195 ft | 425 kts | 273° |
| 2026-05-06 23:27 | 50.43454 | -41.08803 | 36197 ft | 426 kts | 273° |
| 2026-05-06 23:28 | 50.42846 | -41.18083 | 36193 ft | 426 kts | 273° |
| 2026-05-06 23:28 | 50.42234 | -41.27332 | 36200 ft | 427 kts | 272° |